createdAt,value
2018-09-25T00:07:22.926Z,12.8
2018-09-25T00:17:22.153Z,13.1
2018-09-25T00:27:21.377Z,13
2018-09-25T00:37:20.609Z,12.7
2018-09-25T00:47:19.844Z,12.5
2018-09-25T00:57:19.068Z,12.5
2018-09-25T01:07:18.296Z,12.9
2018-09-25T01:17:17.531Z,12.6
2018-09-25T01:27:16.763Z,12.7
2018-09-25T01:37:15.989Z,12.5
2018-09-25T01:47:15.218Z,13
2018-09-25T01:57:14.448Z,12.5
2018-09-25T02:07:13.679Z,13.2
2018-09-25T02:17:12.908Z,12.9
2018-09-25T02:27:12.131Z,12.6
2018-09-25T02:37:11.361Z,13.2
2018-09-25T02:47:10.595Z,12.9
2018-09-25T02:57:09.820Z,12.7
2018-09-25T03:07:09.045Z,13
2018-09-25T03:17:08.282Z,12.6
2018-09-25T03:27:07.506Z,13
2018-09-25T03:37:06.730Z,12.8
2018-09-25T03:47:05.964Z,12.5
2018-09-25T03:57:05.191Z,13.1
2018-09-25T04:07:04.419Z,13
2018-09-25T04:17:03.650Z,12.4
2018-09-25T04:27:02.874Z,12.9
2018-09-25T04:37:02.145Z,12.9
2018-09-25T04:47:01.325Z,12.7
2018-09-25T04:57:00.557Z,13
2018-09-25T05:06:59.834Z,12.9
2018-09-25T05:16:59.011Z,14.2
2018-09-25T05:26:58.240Z,14.8
2018-09-25T05:36:57.463Z,14.4
2018-09-25T05:46:56.745Z,14.1
2018-09-25T05:56:55.984Z,14.8
2018-09-25T06:06:55.148Z,13.9
2018-09-25T06:16:54.375Z,14.3
2018-09-25T06:26:53.611Z,14.3
2018-09-25T06:36:52.831Z,14.7
2018-09-25T06:46:52.065Z,14.4
2018-09-25T06:56:51.288Z,14.2
2018-09-25T07:06:50.523Z,14.2
2018-09-25T07:16:49.745Z,14.4
2018-09-25T07:26:48.974Z,14.3
2018-09-25T07:36:48.201Z,14.7
2018-09-25T07:46:47.430Z,14.7
2018-09-25T07:56:46.662Z,14.4
2018-09-25T08:06:45.893Z,14.7
2018-09-25T08:16:45.115Z,14.5
2018-09-25T08:26:44.341Z,14.3
2018-09-25T08:36:43.575Z,14.3
2018-09-25T08:46:42.798Z,14.2
2018-09-25T08:56:42.027Z,14.5
2018-09-25T09:06:41.254Z,14.4
2018-09-25T09:16:40.487Z,14.6
2018-09-25T09:26:39.715Z,14.1
2018-09-25T09:36:38.944Z,14.2
2018-09-25T09:46:38.170Z,14.6
2018-09-25T09:56:37.397Z,14.1
2018-09-25T10:06:36.682Z,14.2
2018-09-25T10:16:35.857Z,14
2018-09-25T10:26:35.086Z,14.5
2018-09-25T10:36:34.308Z,14.1
2018-09-25T10:46:33.549Z,14.2
2018-09-25T10:56:32.771Z,14.7
2018-09-25T11:06:31.993Z,14.4
2018-09-25T11:16:31.227Z,14.1
2018-09-25T11:26:30.454Z,13.9
2018-09-25T11:36:29.692Z,14.4
2018-09-25T11:46:28.905Z,14.3
2018-09-25T11:56:28.305Z,14.3
2018-09-25T12:06:27.367Z,14.1
2018-09-25T12:16:26.596Z,14.7
2018-09-25T12:26:25.827Z,14.4
2018-09-25T12:36:25.049Z,13.8
2018-09-25T12:46:24.280Z,14.5
2018-09-25T12:56:23.557Z,13.9
2018-09-25T13:06:22.732Z,13.7
2018-09-25T13:16:21.961Z,14.4
2018-09-25T13:26:21.187Z,14
2018-09-25T13:36:20.421Z,13.8
2018-09-25T13:46:19.645Z,13.2
2018-09-25T13:56:18.876Z,13.3
2018-09-25T14:06:18.105Z,13.2
2018-09-25T14:16:17.326Z,13.3
2018-09-25T14:26:16.556Z,12.7
2018-09-25T14:36:15.780Z,12.6
2018-09-25T14:46:15.010Z,12.5
2018-09-25T14:56:14.234Z,13.2
2018-09-25T15:06:13.465Z,12.6
2018-09-25T15:16:12.691Z,12.9
2018-09-25T15:26:11.918Z,12.6
2018-09-25T15:36:11.145Z,13.1
2018-09-25T15:46:10.422Z,13
2018-09-25T15:56:09.602Z,13
2018-09-25T16:06:08.833Z,13
2018-09-25T16:16:08.059Z,12.7
2018-09-25T16:26:07.289Z,13
2018-09-25T16:36:06.519Z,12.9
2018-09-25T16:46:05.749Z,13.2
2018-09-25T16:56:04.979Z,13.1
2018-09-25T17:06:04.258Z,12.6
2018-09-25T17:16:03.436Z,12.7
2018-09-25T17:26:02.665Z,12.9
2018-09-25T17:36:01.893Z,13
2018-09-25T17:46:01.122Z,13.1
2018-09-25T17:56:00.353Z,12.7
2018-09-25T18:05:59.574Z,13.2
2018-09-25T18:15:58.807Z,13.1
2018-09-25T18:25:58.032Z,12.9
2018-09-25T18:35:57.271Z,13
2018-09-25T18:45:56.512Z,12.5
2018-09-25T18:55:55.769Z,13
2018-09-25T19:05:54.948Z,12.5
2018-09-25T19:15:54.172Z,12.8
2018-09-25T19:25:53.398Z,12.8
2018-09-25T19:35:52.659Z,13.1
2018-09-25T19:45:51.865Z,12.6
2018-09-25T19:55:51.091Z,12.9
2018-09-25T20:05:50.313Z,12.9
2018-09-25T20:15:49.537Z,13
2018-09-25T20:25:48.771Z,12.6
2018-09-25T20:35:47.989Z,13
2018-09-25T20:45:47.212Z,13.1
2018-09-25T20:55:46.440Z,12.6
2018-09-25T21:05:45.669Z,12.9
2018-09-25T21:15:44.900Z,13
2018-09-25T21:25:44.119Z,12.6
2018-09-25T21:35:43.343Z,12.6
2018-09-25T21:45:42.568Z,12.6
2018-09-25T21:55:41.791Z,13
2018-09-25T22:05:41.020Z,12.9
2018-09-25T22:15:40.252Z,13.1
2018-09-25T22:25:39.472Z,12.5
2018-09-25T22:35:38.693Z,13.2
2018-09-25T22:45:37.917Z,12.9
2018-09-25T22:55:37.146Z,13
2018-09-25T23:05:36.386Z,12.9
2018-09-25T23:15:35.595Z,13
2018-09-25T23:25:34.823Z,12.6
2018-09-25T23:35:34.040Z,13.2
2018-09-25T23:45:33.268Z,12.4
2018-09-25T23:55:32.492Z,12.7
